sensor_id;sensor_type;location;lat;lon;timestamp;P1;durP1;ratioP1;P2;durP2;ratioP2
27039;SDS011;14589;51.578;7.306;2023-11-21T00:00:30;16.35;;;6.15;;
27039;SDS011;14589;51.578;7.306;2023-11-21T00:03:00;14.57;;;6.15;;
27039;SDS011;14589;51.578;7.306;2023-11-21T00:05:31;11.10;;;6.35;;
27039;SDS011;14589;51.578;7.306;2023-11-21T00:08:01;15.13;;;6.38;;
27039;SDS011;14589;51.578;7.306;2023-11-21T00:10:31;14.77;;;6.70;;
27039;SDS011;14589;51.578;7.306;2023-11-21T00:13:02;11.30;;;6.88;;
27039;SDS011;14589;51.578;7.306;2023-11-21T00:15:33;14.23;;;8.15;;
27039;SDS011;14589;51.578;7.306;2023-11-21T00:18:04;11.60;;;5.65;;
27039;SDS011;14589;51.578;7.306;2023-11-21T00:20:35;15.57;;;6.38;;
27039;SDS011;14589;51.578;7.306;2023-11-21T00:23:05;16.20;;;6.47;;
27039;SDS011;14589;51.578;7.306;2023-11-21T00:25:35;16.17;;;6.03;;
27039;SDS011;14589;51.578;7.306;2023-11-21T00:28:06;12.55;;;4.80;;
27039;SDS011;14589;51.578;7.306;2023-11-21T00:30:37;11.70;;;4.97;;
27039;SDS011;14589;51.578;7.306;2023-11-21T00:33:08;11.30;;;6.03;;
27039;SDS011;14589;51.578;7.306;2023-11-21T00:35:38;14.75;;;6.50;;
27039;SDS011;14589;51.578;7.306;2023-11-21T00:38:09;10.38;;;4.78;;
27039;SDS011;14589;51.578;7.306;2023-11-21T00:40:39;11.90;;;4.38;;
27039;SDS011;14589;51.578;7.306;2023-11-21T00:43:10;11.38;;;5.43;;
27039;SDS011;14589;51.578;7.306;2023-11-21T00:45:40;13.15;;;4.57;;
27039;SDS011;14589;51.578;7.306;2023-11-21T00:48:10;10.27;;;4.57;;
27039;SDS011;14589;51.578;7.306;2023-11-21T00:50:43;9.77;;;4.90;;
27039;SDS011;14589;51.578;7.306;2023-11-21T00:53:14;9.18;;;5.22;;
27039;SDS011;14589;51.578;7.306;2023-11-21T00:55:44;11.70;;;5.18;;
27039;SDS011;14589;51.578;7.306;2023-11-21T00:58:15;9.70;;;4.95;;
27039;SDS011;14589;51.578;7.306;2023-11-21T01:00:45;11.85;;;4.38;;
27039;SDS011;14589;51.578;7.306;2023-11-21T01:03:18;10.27;;;4.05;;
27039;SDS011;14589;51.578;7.306;2023-11-21T01:05:48;10.18;;;3.78;;
27039;SDS011;14589;51.578;7.306;2023-11-21T01:08:20;8.93;;;4.13;;
27039;SDS011;14589;51.578;7.306;2023-11-21T01:10:51;9.05;;;4.05;;
27039;SDS011;14589;51.578;7.306;2023-11-21T01:13:22;10.32;;;4.00;;
27039;SDS011;14589;51.578;7.306;2023-11-21T01:15:52;8.98;;;4.40;;
27039;SDS011;14589;51.578;7.306;2023-11-21T01:18:24;8.35;;;4.35;;
27039;SDS011;14589;51.578;7.306;2023-11-21T01:20:55;10.23;;;3.97;;
27039;SDS011;14589;51.578;7.306;2023-11-21T01:23:26;7.80;;;3.22;;
27039;SDS011;14589;51.578;7.306;2023-11-21T01:25:57;10.15;;;4.07;;
27039;SDS011;14589;51.578;7.306;2023-11-21T01:28:27;9.20;;;4.18;;
27039;SDS011;14589;51.578;7.306;2023-11-21T01:30:58;10.05;;;5.03;;
27039;SDS011;14589;51.578;7.306;2023-11-21T01:33:29;11.02;;;4.43;;
27039;SDS011;14589;51.578;7.306;2023-11-21T01:35:59;9.85;;;4.95;;
27039;SDS011;14589;51.578;7.306;2023-11-21T01:38:30;8.68;;;3.70;;
27039;SDS011;14589;51.578;7.306;2023-11-21T01:41:00;11.63;;;4.68;;
27039;SDS011;14589;51.578;7.306;2023-11-21T01:43:30;9.25;;;4.82;;
27039;SDS011;14589;51.578;7.306;2023-11-21T01:46:02;8.25;;;3.67;;
27039;SDS011;14589;51.578;7.306;2023-11-21T01:48:32;10.07;;;4.82;;
27039;SDS011;14589;51.578;7.306;2023-11-21T01:51:04;9.77;;;4.47;;
27039;SDS011;14589;51.578;7.306;2023-11-21T01:53:35;9.18;;;4.30;;
27039;SDS011;14589;51.578;7.306;2023-11-21T01:56:06;10.80;;;4.15;;
27039;SDS011;14589;51.578;7.306;2023-11-21T01:58:39;12.23;;;5.75;;
27039;SDS011;14589;51.578;7.306;2023-11-21T02:01:09;9.55;;;4.28;;
27039;SDS011;14589;51.578;7.306;2023-11-21T02:03:40;11.20;;;5.82;;
27039;SDS011;14589;51.578;7.306;2023-11-21T02:06:12;12.45;;;4.75;;
27039;SDS011;14589;51.578;7.306;2023-11-21T02:08:42;9.88;;;4.82;;
27039;SDS011;14589;51.578;7.306;2023-11-21T02:11:15;14.38;;;4.63;;
27039;SDS011;14589;51.578;7.306;2023-11-21T02:13:46;10.77;;;4.40;;
27039;SDS011;14589;51.578;7.306;2023-11-21T02:16:17;18.17;;;4.03;;
27039;SDS011;14589;51.578;7.306;2023-11-21T02:18:47;10.55;;;4.50;;
27039;SDS011;14589;51.578;7.306;2023-11-21T02:21:18;12.30;;;4.00;;
27039;SDS011;14589;51.578;7.306;2023-11-21T02:23:52;12.18;;;4.55;;
27039;SDS011;14589;51.578;7.306;2023-11-21T02:26:22;8.75;;;3.53;;
27039;SDS011;14589;51.578;7.306;2023-11-21T02:28:52;12.30;;;4.55;;
27039;SDS011;14589;51.578;7.306;2023-11-21T02:31:23;13.85;;;4.70;;
27039;SDS011;14589;51.578;7.306;2023-11-21T02:33:53;10.13;;;4.28;;
27039;SDS011;14589;51.578;7.306;2023-11-21T02:36:25;12.27;;;4.63;;
27039;SDS011;14589;51.578;7.306;2023-11-21T02:38:56;8.93;;;4.07;;
27039;SDS011;14589;51.578;7.306;2023-11-21T02:41:26;9.02;;;3.83;;
27039;SDS011;14589;51.578;7.306;2023-11-21T02:43:56;9.55;;;4.28;;
27039;SDS011;14589;51.578;7.306;2023-11-21T02:46:27;14.15;;;5.32;;
27039;SDS011;14589;51.578;7.306;2023-11-21T02:48:57;15.90;;;4.97;;
27039;SDS011;14589;51.578;7.306;2023-11-21T02:51:28;10.13;;;3.72;;
27039;SDS011;14589;51.578;7.306;2023-11-21T02:53:59;11.48;;;4.10;;
27039;SDS011;14589;51.578;7.306;2023-11-21T02:56:32;11.07;;;5.15;;
27039;SDS011;14589;51.578;7.306;2023-11-21T02:59:07;11.80;;;4.80;;
27039;SDS011;14589;51.578;7.306;2023-11-21T03:01:37;9.60;;;4.20;;
27039;SDS011;14589;51.578;7.306;2023-11-21T03:04:07;13.70;;;5.10;;
27039;SDS011;14589;51.578;7.306;2023-11-21T03:06:38;14.77;;;4.90;;
27039;SDS011;14589;51.578;7.306;2023-11-21T03:09:08;16.88;;;5.65;;
27039;SDS011;14589;51.578;7.306;2023-11-21T03:11:39;10.48;;;4.65;;
27039;SDS011;14589;51.578;7.306;2023-11-21T03:14:09;9.38;;;4.13;;
27039;SDS011;14589;51.578;7.306;2023-11-21T03:16:40;13.77;;;5.05;;
27039;SDS011;14589;51.578;7.306;2023-11-21T03:19:11;10.85;;;5.78;;
27039;SDS011;14589;51.578;7.306;2023-11-21T03:21:41;16.10;;;5.97;;
27039;SDS011;14589;51.578;7.306;2023-11-21T03:24:12;9.77;;;4.63;;
27039;SDS011;14589;51.578;7.306;2023-11-21T03:26:44;13.68;;;5.22;;
27039;SDS011;14589;51.578;7.306;2023-11-21T03:29:15;12.15;;;4.97;;
27039;SDS011;14589;51.578;7.306;2023-11-21T03:31:46;10.75;;;5.03;;
27039;SDS011;14589;51.578;7.306;2023-11-21T03:34:26;13.65;;;4.95;;
27039;SDS011;14589;51.578;7.306;2023-11-21T03:36:58;10.13;;;4.25;;
27039;SDS011;14589;51.578;7.306;2023-11-21T03:39:29;10.40;;;4.72;;
27039;SDS011;14589;51.578;7.306;2023-11-21T03:41:59;10.50;;;4.88;;
27039;SDS011;14589;51.578;7.306;2023-11-21T03:44:30;9.68;;;6.03;;
27039;SDS011;14589;51.578;7.306;2023-11-21T03:47:00;11.35;;;4.53;;
27039;SDS011;14589;51.578;7.306;2023-11-21T03:49:31;10.43;;;4.60;;
27039;SDS011;14589;51.578;7.306;2023-11-21T03:52:02;13.57;;;5.05;;
27039;SDS011;14589;51.578;7.306;2023-11-21T03:54:35;12.60;;;4.57;;
27039;SDS011;14589;51.578;7.306;2023-11-21T03:57:06;16.83;;;6.65;;
27039;SDS011;14589;51.578;7.306;2023-11-21T03:59:39;9.43;;;5.05;;
27039;SDS011;14589;51.578;7.306;2023-11-21T04:02:11;12.93;;;5.40;;
27039;SDS011;14589;51.578;7.306;2023-11-21T04:04:41;13.45;;;5.40;;
27039;SDS011;14589;51.578;7.306;2023-11-21T04:07:12;14.98;;;5.53;;
27039;SDS011;14589;51.578;7.306;2023-11-21T04:09:43;13.13;;;6.82;;
27039;SDS011;14589;51.578;7.306;2023-11-21T04:12:13;12.40;;;5.47;;
27039;SDS011;14589;51.578;7.306;2023-11-21T04:14:44;14.27;;;3.85;;
27039;SDS011;14589;51.578;7.306;2023-11-21T04:17:17;15.35;;;5.57;;
27039;SDS011;14589;51.578;7.306;2023-11-21T04:19:49;12.77;;;4.75;;
27039;SDS011;14589;51.578;7.306;2023-11-21T04:22:19;10.27;;;6.30;;
27039;SDS011;14589;51.578;7.306;2023-11-21T04:24:49;12.07;;;5.40;;
27039;SDS011;14589;51.578;7.306;2023-11-21T04:27:20;12.40;;;5.45;;
27039;SDS011;14589;51.578;7.306;2023-11-21T04:29:51;10.65;;;4.68;;
27039;SDS011;14589;51.578;7.306;2023-11-21T04:32:21;11.32;;;4.88;;
27039;SDS011;14589;51.578;7.306;2023-11-21T04:34:51;10.48;;;5.13;;
27039;SDS011;14589;51.578;7.306;2023-11-21T04:37:22;10.27;;;4.35;;
27039;SDS011;14589;51.578;7.306;2023-11-21T04:39:52;13.65;;;4.97;;
27039;SDS011;14589;51.578;7.306;2023-11-21T04:42:23;12.63;;;5.28;;
27039;SDS011;14589;51.578;7.306;2023-11-21T04:44:53;13.70;;;5.20;;
27039;SDS011;14589;51.578;7.306;2023-11-21T04:47:24;11.52;;;4.50;;
27039;SDS011;14589;51.578;7.306;2023-11-21T04:49:55;17.23;;;6.22;;
27039;SDS011;14589;51.578;7.306;2023-11-21T04:52:25;10.95;;;5.55;;
27039;SDS011;14589;51.578;7.306;2023-11-21T04:54:55;10.45;;;4.43;;
27039;SDS011;14589;51.578;7.306;2023-11-21T04:59:58;11.43;;;4.00;;
27039;SDS011;14589;51.578;7.306;2023-11-21T05:02:29;12.40;;;6.10;;
27039;SDS011;14589;51.578;7.306;2023-11-21T05:04:59;9.43;;;4.65;;
27039;SDS011;14589;51.578;7.306;2023-11-21T05:07:30;13.68;;;5.05;;
27039;SDS011;14589;51.578;7.306;2023-11-21T05:10:00;12.40;;;4.75;;
27039;SDS011;14589;51.578;7.306;2023-11-21T05:12:33;11.48;;;4.75;;
27039;SDS011;14589;51.578;7.306;2023-11-21T05:15:07;10.90;;;4.40;;
27039;SDS011;14589;51.578;7.306;2023-11-21T05:17:42;13.88;;;5.43;;
27039;SDS011;14589;51.578;7.306;2023-11-21T05:20:17;13.70;;;5.13;;
27039;SDS011;14589;51.578;7.306;2023-11-21T05:22:51;11.57;;;4.30;;
27039;SDS011;14589;51.578;7.306;2023-11-21T05:25:21;13.68;;;4.80;;
27039;SDS011;14589;51.578;7.306;2023-11-21T05:27:52;9.10;;;4.43;;
27039;SDS011;14589;51.578;7.306;2023-11-21T05:30:23;14.57;;;5.35;;
27039;SDS011;14589;51.578;7.306;2023-11-21T05:32:53;9.23;;;4.63;;
27039;SDS011;14589;51.578;7.306;2023-11-21T05:35:24;11.82;;;4.32;;
27039;SDS011;14589;51.578;7.306;2023-11-21T05:37:54;17.25;;;4.80;;
27039;SDS011;14589;51.578;7.306;2023-11-21T05:40:24;14.73;;;4.50;;
27039;SDS011;14589;51.578;7.306;2023-11-21T05:42:59;13.07;;;6.20;;
27039;SDS011;14589;51.578;7.306;2023-11-21T05:45:29;14.68;;;6.80;;
27039;SDS011;14589;51.578;7.306;2023-11-21T05:48:00;9.13;;;4.03;;
27039;SDS011;14589;51.578;7.306;2023-11-21T05:50:30;11.05;;;5.30;;
27039;SDS011;14589;51.578;7.306;2023-11-21T05:53:01;12.52;;;4.47;;
27039;SDS011;14589;51.578;7.306;2023-11-21T05:55:31;11.82;;;5.15;;
27039;SDS011;14589;51.578;7.306;2023-11-21T05:58:01;10.43;;;4.57;;
27039;SDS011;14589;51.578;7.306;2023-11-21T06:00:32;7.90;;;4.15;;
27039;SDS011;14589;51.578;7.306;2023-11-21T06:03:03;8.45;;;4.07;;
27039;SDS011;14589;51.578;7.306;2023-11-21T06:05:36;12.85;;;4.57;;
27039;SDS011;14589;51.578;7.306;2023-11-21T06:08:06;13.55;;;4.15;;
27039;SDS011;14589;51.578;7.306;2023-11-21T06:10:37;11.25;;;4.78;;
27039;SDS011;14589;51.578;7.306;2023-11-21T06:13:07;10.07;;;4.72;;
27039;SDS011;14589;51.578;7.306;2023-11-21T06:15:38;8.85;;;5.45;;
27039;SDS011;14589;51.578;7.306;2023-11-21T06:18:08;11.75;;;4.25;;
27039;SDS011;14589;51.578;7.306;2023-11-21T06:20:40;10.73;;;4.25;;
27039;SDS011;14589;51.578;7.306;2023-11-21T06:23:11;10.38;;;4.20;;
27039;SDS011;14589;51.578;7.306;2023-11-21T06:25:41;10.35;;;4.90;;
27039;SDS011;14589;51.578;7.306;2023-11-21T06:28:12;11.27;;;4.63;;
27039;SDS011;14589;51.578;7.306;2023-11-21T06:30:42;11.57;;;4.47;;
27039;SDS011;14589;51.578;7.306;2023-11-21T06:33:14;11.63;;;4.78;;
27039;SDS011;14589;51.578;7.306;2023-11-21T06:35:44;13.57;;;4.50;;
27039;SDS011;14589;51.578;7.306;2023-11-21T06:38:15;9.90;;;4.72;;
27039;SDS011;14589;51.578;7.306;2023-11-21T06:40:45;12.30;;;5.07;;
27039;SDS011;14589;51.578;7.306;2023-11-21T06:43:16;10.57;;;4.80;;
27039;SDS011;14589;51.578;7.306;2023-11-21T06:45:47;11.57;;;4.60;;
27039;SDS011;14589;51.578;7.306;2023-11-21T06:48:18;12.40;;;5.05;;
27039;SDS011;14589;51.578;7.306;2023-11-21T06:50:48;15.07;;;5.25;;
27039;SDS011;14589;51.578;7.306;2023-11-21T06:53:19;12.18;;;6.15;;
27039;SDS011;14589;51.578;7.306;2023-11-21T06:55:49;10.63;;;4.72;;
27039;SDS011;14589;51.578;7.306;2023-11-21T06:58:19;9.93;;;4.45;;
27039;SDS011;14589;51.578;7.306;2023-11-21T07:00:50;12.38;;;4.53;;
27039;SDS011;14589;51.578;7.306;2023-11-21T07:03:20;13.00;;;5.20;;
27039;SDS011;14589;51.578;7.306;2023-11-21T07:05:51;13.15;;;4.80;;
27039;SDS011;14589;51.578;7.306;2023-11-21T07:08:21;12.60;;;5.38;;
27039;SDS011;14589;51.578;7.306;2023-11-21T07:10:52;11.80;;;6.13;;
27039;SDS011;14589;51.578;7.306;2023-11-21T07:13:23;12.55;;;5.78;;
27039;SDS011;14589;51.578;7.306;2023-11-21T07:15:53;13.55;;;5.70;;
27039;SDS011;14589;51.578;7.306;2023-11-21T07:18:24;17.42;;;5.05;;
27039;SDS011;14589;51.578;7.306;2023-11-21T07:20:54;15.13;;;6.35;;
27039;SDS011;14589;51.578;7.306;2023-11-21T07:23:25;14.55;;;5.75;;
27039;SDS011;14589;51.578;7.306;2023-11-21T07:25:55;15.60;;;6.97;;
27039;SDS011;14589;51.578;7.306;2023-11-21T07:28:26;14.48;;;6.82;;
27039;SDS011;14589;51.578;7.306;2023-11-21T07:30:56;14.45;;;7.18;;
27039;SDS011;14589;51.578;7.306;2023-11-21T07:33:27;16.48;;;7.53;;
27039;SDS011;14589;51.578;7.306;2023-11-21T07:35:57;22.13;;;9.57;;
27039;SDS011;14589;51.578;7.306;2023-11-21T07:38:27;20.30;;;9.85;;
27039;SDS011;14589;51.578;7.306;2023-11-21T07:40:58;20.67;;;8.80;;
27039;SDS011;14589;51.578;7.306;2023-11-21T07:43:31;22.70;;;9.27;;
27039;SDS011;14589;51.578;7.306;2023-11-21T07:46:05;19.70;;;9.60;;
27039;SDS011;14589;51.578;7.306;2023-11-21T07:48:35;19.58;;;8.65;;
27039;SDS011;14589;51.578;7.306;2023-11-21T07:51:06;21.40;;;9.90;;
27039;SDS011;14589;51.578;7.306;2023-11-21T07:53:39;21.38;;;10.13;;
27039;SDS011;14589;51.578;7.306;2023-11-21T07:56:09;18.27;;;8.50;;
27039;SDS011;14589;51.578;7.306;2023-11-21T07:58:40;17.00;;;8.32;;
27039;SDS011;14589;51.578;7.306;2023-11-21T08:01:10;21.50;;;8.45;;
27039;SDS011;14589;51.578;7.306;2023-11-21T08:03:41;19.23;;;9.13;;
27039;SDS011;14589;51.578;7.306;2023-11-21T08:06:12;17.23;;;7.18;;
27039;SDS011;14589;51.578;7.306;2023-11-21T08:08:42;16.88;;;7.55;;
27039;SDS011;14589;51.578;7.306;2023-11-21T08:11:13;16.85;;;7.07;;
27039;SDS011;14589;51.578;7.306;2023-11-21T08:13:43;18.35;;;8.05;;
27039;SDS011;14589;51.578;7.306;2023-11-21T08:16:14;19.60;;;7.85;;
27039;SDS011;14589;51.578;7.306;2023-11-21T08:18:44;16.02;;;6.72;;
27039;SDS011;14589;51.578;7.306;2023-11-21T08:21:15;17.60;;;8.45;;
27039;SDS011;14589;51.578;7.306;2023-11-21T08:23:45;16.48;;;8.00;;
27039;SDS011;14589;51.578;7.306;2023-11-21T08:26:16;17.85;;;7.80;;
27039;SDS011;14589;51.578;7.306;2023-11-21T08:28:48;15.10;;;7.43;;
27039;SDS011;14589;51.578;7.306;2023-11-21T08:31:23;15.88;;;7.80;;
27039;SDS011;14589;51.578;7.306;2023-11-21T08:33:55;16.85;;;8.68;;
27039;SDS011;14589;51.578;7.306;2023-11-21T08:36:26;17.95;;;8.88;;
27039;SDS011;14589;51.578;7.306;2023-11-21T08:38:56;18.42;;;9.18;;
27039;SDS011;14589;51.578;7.306;2023-11-21T08:41:26;18.50;;;8.95;;
27039;SDS011;14589;51.578;7.306;2023-11-21T08:43:58;21.27;;;8.88;;
27039;SDS011;14589;51.578;7.306;2023-11-21T08:46:28;15.55;;;7.70;;
27039;SDS011;14589;51.578;7.306;2023-11-21T08:48:58;20.55;;;7.95;;
27039;SDS011;14589;51.578;7.306;2023-11-21T08:51:29;21.02;;;8.40;;
27039;SDS011;14589;51.578;7.306;2023-11-21T08:53:59;14.68;;;7.43;;
27039;SDS011;14589;51.578;7.306;2023-11-21T08:56:30;22.17;;;9.30;;
27039;SDS011;14589;51.578;7.306;2023-11-21T08:59:01;19.98;;;9.23;;
27039;SDS011;14589;51.578;7.306;2023-11-21T09:01:32;19.10;;;10.07;;
27039;SDS011;14589;51.578;7.306;2023-11-21T09:04:03;22.75;;;8.82;;
27039;SDS011;14589;51.578;7.306;2023-11-21T09:06:33;25.05;;;9.85;;
27039;SDS011;14589;51.578;7.306;2023-11-21T09:09:03;23.65;;;10.95;;
27039;SDS011;14589;51.578;7.306;2023-11-21T09:11:36;18.13;;;8.38;;
27039;SDS011;14589;51.578;7.306;2023-11-21T09:14:06;26.00;;;10.05;;
27039;SDS011;14589;51.578;7.306;2023-11-21T09:16:37;29.17;;;13.55;;
27039;SDS011;14589;51.578;7.306;2023-11-21T09:19:08;23.00;;;10.10;;
27039;SDS011;14589;51.578;7.306;2023-11-21T09:21:39;27.67;;;11.75;;
27039;SDS011;14589;51.578;7.306;2023-11-21T09:24:09;33.85;;;12.32;;
27039;SDS011;14589;51.578;7.306;2023-11-21T09:26:40;36.92;;;12.57;;
27039;SDS011;14589;51.578;7.306;2023-11-21T09:29:11;27.25;;;12.85;;
27039;SDS011;14589;51.578;7.306;2023-11-21T09:31:41;39.15;;;13.27;;
27039;SDS011;14589;51.578;7.306;2023-11-21T09:34:13;35.20;;;14.75;;
27039;SDS011;14589;51.578;7.306;2023-11-21T09:36:45;30.85;;;13.05;;
27039;SDS011;14589;51.578;7.306;2023-11-21T09:39:16;32.42;;;13.93;;
27039;SDS011;14589;51.578;7.306;2023-11-21T09:41:51;33.03;;;14.43;;
27039;SDS011;14589;51.578;7.306;2023-11-21T09:44:35;34.97;;;14.15;;
27039;SDS011;14589;51.578;7.306;2023-11-21T09:47:15;33.38;;;13.07;;
27039;SDS011;14589;51.578;7.306;2023-11-21T09:49:47;40.97;;;14.20;;
27039;SDS011;14589;51.578;7.306;2023-11-21T09:52:24;38.25;;;14.10;;
27039;SDS011;14589;51.578;7.306;2023-11-21T09:54:56;34.03;;;15.18;;
27039;SDS011;14589;51.578;7.306;2023-11-21T09:57:31;38.13;;;15.82;;
27039;SDS011;14589;51.578;7.306;2023-11-21T10:00:01;38.53;;;13.30;;
27039;SDS011;14589;51.578;7.306;2023-11-21T10:02:35;28.70;;;13.95;;
27039;SDS011;14589;51.578;7.306;2023-11-21T10:05:08;37.97;;;13.48;;
27039;SDS011;14589;51.578;7.306;2023-11-21T10:07:41;35.88;;;13.60;;
27039;SDS011;14589;51.578;7.306;2023-11-21T10:10:14;39.10;;;15.23;;
27039;SDS011;14589;51.578;7.306;2023-11-21T10:12:49;42.95;;;14.02;;
27039;SDS011;14589;51.578;7.306;2023-11-21T10:15:23;36.15;;;16.33;;
27039;SDS011;14589;51.578;7.306;2023-11-21T10:17:57;37.75;;;14.30;;
27039;SDS011;14589;51.578;7.306;2023-11-21T10:20:27;36.97;;;14.50;;
27039;SDS011;14589;51.578;7.306;2023-11-21T10:23:00;38.10;;;15.07;;
27039;SDS011;14589;51.578;7.306;2023-11-21T10:25:33;32.55;;;13.38;;
27039;SDS011;14589;51.578;7.306;2023-11-21T10:28:05;39.67;;;15.15;;
27039;SDS011;14589;51.578;7.306;2023-11-21T10:30:37;33.47;;;13.02;;
27039;SDS011;14589;51.578;7.306;2023-11-21T10:33:08;27.73;;;12.93;;
27039;SDS011;14589;51.578;7.306;2023-11-21T10:38:12;39.13;;;14.70;;
27039;SDS011;14589;51.578;7.306;2023-11-21T10:40:44;34.83;;;14.10;;
27039;SDS011;14589;51.578;7.306;2023-11-21T10:45:47;30.63;;;11.85;;
27039;SDS011;14589;51.578;7.306;2023-11-21T10:48:18;41.22;;;14.23;;
27039;SDS011;14589;51.578;7.306;2023-11-21T10:50:48;35.42;;;14.60;;
27039;SDS011;14589;51.578;7.306;2023-11-21T10:53:18;40.50;;;14.88;;
27039;SDS011;14589;51.578;7.306;2023-11-21T10:55:49;34.58;;;14.00;;
27039;SDS011;14589;51.578;7.306;2023-11-21T10:58:19;37.05;;;13.73;;
27039;SDS011;14589;51.578;7.306;2023-11-21T11:00:50;39.38;;;15.18;;
27039;SDS011;14589;51.578;7.306;2023-11-21T11:03:22;38.50;;;13.73;;
27039;SDS011;14589;51.578;7.306;2023-11-21T11:05:53;36.10;;;14.75;;
27039;SDS011;14589;51.578;7.306;2023-11-21T11:08:24;34.90;;;14.18;;
27039;SDS011;14589;51.578;7.306;2023-11-21T11:10:58;37.22;;;12.98;;
27039;SDS011;14589;51.578;7.306;2023-11-21T11:13:29;33.45;;;13.88;;
27039;SDS011;14589;51.578;7.306;2023-11-21T11:16:01;38.58;;;12.65;;
27039;SDS011;14589;51.578;7.306;2023-11-21T11:18:37;31.35;;;12.90;;
27039;SDS011;14589;51.578;7.306;2023-11-21T11:21:11;29.83;;;11.98;;
27039;SDS011;14589;51.578;7.306;2023-11-21T11:27:06;31.42;;;12.82;;
27039;SDS011;14589;51.578;7.306;2023-11-21T11:33:19;30.17;;;10.60;;
27039;SDS011;14589;51.578;7.306;2023-11-21T11:36:06;24.48;;;9.70;;
27039;SDS011;14589;51.578;7.306;2023-11-21T11:38:44;20.67;;;8.27;;
27039;SDS011;14589;51.578;7.306;2023-11-21T11:41:25;18.95;;;8.00;;
27039;SDS011;14589;51.578;7.306;2023-11-21T11:43:57;15.10;;;7.03;;
27039;SDS011;14589;51.578;7.306;2023-11-21T11:46:43;18.38;;;7.75;;
27039;SDS011;14589;51.578;7.306;2023-11-21T11:49:27;20.73;;;7.93;;
27039;SDS011;14589;51.578;7.306;2023-11-21T11:55:06;18.15;;;8.73;;
27039;SDS011;14589;51.578;7.306;2023-11-21T11:57:40;16.67;;;9.07;;
27039;SDS011;14589;51.578;7.306;2023-11-21T12:02:46;19.77;;;6.97;;
27039;SDS011;14589;51.578;7.306;2023-11-21T12:05:21;17.23;;;7.63;;
27039;SDS011;14589;51.578;7.306;2023-11-21T12:07:53;19.70;;;9.00;;
27039;SDS011;14589;51.578;7.306;2023-11-21T12:10:27;15.20;;;7.28;;
27039;SDS011;14589;51.578;7.306;2023-11-21T12:13:02;16.05;;;7.53;;
27039;SDS011;14589;51.578;7.306;2023-11-21T12:15:37;18.50;;;8.02;;
27039;SDS011;14589;51.578;7.306;2023-11-21T12:18:08;24.08;;;8.10;;
27039;SDS011;14589;51.578;7.306;2023-11-21T12:20:39;22.42;;;7.80;;
27039;SDS011;14589;51.578;7.306;2023-11-21T12:23:11;17.52;;;7.75;;
27039;SDS011;14589;51.578;7.306;2023-11-21T12:25:44;14.18;;;6.65;;
27039;SDS011;14589;51.578;7.306;2023-11-21T12:28:15;15.40;;;7.53;;
27039;SDS011;14589;51.578;7.306;2023-11-21T12:30:45;15.23;;;7.45;;
27039;SDS011;14589;51.578;7.306;2023-11-21T12:33:15;17.70;;;7.05;;
27039;SDS011;14589;51.578;7.306;2023-11-21T12:35:47;16.70;;;7.80;;
27039;SDS011;14589;51.578;7.306;2023-11-21T12:38:18;16.67;;;7.65;;
27039;SDS011;14589;51.578;7.306;2023-11-21T12:40:50;19.85;;;7.10;;
27039;SDS011;14589;51.578;7.306;2023-11-21T12:43:21;16.65;;;7.60;;
27039;SDS011;14589;51.578;7.306;2023-11-21T12:46:03;15.15;;;7.93;;
27039;SDS011;14589;51.578;7.306;2023-11-21T12:48:42;17.60;;;7.93;;
27039;SDS011;14589;51.578;7.306;2023-11-21T12:51:14;17.63;;;8.20;;
27039;SDS011;14589;51.578;7.306;2023-11-21T12:53:45;17.05;;;7.75;;
27039;SDS011;14589;51.578;7.306;2023-11-21T12:56:17;16.30;;;7.43;;
27039;SDS011;14589;51.578;7.306;2023-11-21T12:58:47;17.27;;;7.22;;
27039;SDS011;14589;51.578;7.306;2023-11-21T13:01:18;17.42;;;8.15;;
27039;SDS011;14589;51.578;7.306;2023-11-21T13:03:51;19.38;;;7.80;;
27039;SDS011;14589;51.578;7.306;2023-11-21T13:06:22;13.13;;;6.80;;
27039;SDS011;14589;51.578;7.306;2023-11-21T13:08:55;16.17;;;6.20;;
27039;SDS011;14589;51.578;7.306;2023-11-21T13:11:29;15.25;;;6.93;;
27039;SDS011;14589;51.578;7.306;2023-11-21T13:14:02;18.58;;;7.50;;
27039;SDS011;14589;51.578;7.306;2023-11-21T13:16:33;16.00;;;7.50;;
27039;SDS011;14589;51.578;7.306;2023-11-21T13:19:04;12.90;;;6.15;;
27039;SDS011;14589;51.578;7.306;2023-11-21T13:21:34;18.27;;;6.53;;
27039;SDS011;14589;51.578;7.306;2023-11-21T13:24:05;14.88;;;6.30;;
27039;SDS011;14589;51.578;7.306;2023-11-21T13:26:35;13.25;;;5.45;;
27039;SDS011;14589;51.578;7.306;2023-11-21T13:29:06;16.23;;;6.78;;
27039;SDS011;14589;51.578;7.306;2023-11-21T13:31:36;12.85;;;5.50;;
27039;SDS011;14589;51.578;7.306;2023-11-21T13:34:08;13.45;;;5.63;;
27039;SDS011;14589;51.578;7.306;2023-11-21T13:36:39;13.52;;;5.95;;
27039;SDS011;14589;51.578;7.306;2023-11-21T13:39:12;15.00;;;5.20;;
27039;SDS011;14589;51.578;7.306;2023-11-21T13:41:45;12.40;;;4.75;;
27039;SDS011;14589;51.578;7.306;2023-11-21T13:44:18;13.65;;;5.13;;
27039;SDS011;14589;51.578;7.306;2023-11-21T13:47:04;15.00;;;4.88;;
27039;SDS011;14589;51.578;7.306;2023-11-21T13:49:36;13.02;;;5.13;;
27039;SDS011;14589;51.578;7.306;2023-11-21T13:52:10;13.52;;;5.20;;
27039;SDS011;14589;51.578;7.306;2023-11-21T13:54:45;7.68;;;2.40;;
27039;SDS011;14589;51.578;7.306;2023-11-21T13:57:16;13.65;;;4.22;;
27039;SDS011;14589;51.578;7.306;2023-11-21T13:59:46;12.18;;;4.93;;
27039;SDS011;14589;51.578;7.306;2023-11-21T14:02:17;12.60;;;5.57;;
27039;SDS011;14589;51.578;7.306;2023-11-21T14:04:48;10.10;;;4.15;;
27039;SDS011;14589;51.578;7.306;2023-11-21T14:07:25;11.32;;;5.30;;
27039;SDS011;14589;51.578;7.306;2023-11-21T14:10:07;8.98;;;4.18;;
27039;SDS011;14589;51.578;7.306;2023-11-21T14:12:43;8.23;;;3.45;;
27039;SDS011;14589;51.578;7.306;2023-11-21T14:15:14;13.05;;;3.92;;
27039;SDS011;14589;51.578;7.306;2023-11-21T14:17:48;7.50;;;3.75;;
27039;SDS011;14589;51.578;7.306;2023-11-21T14:20:20;10.40;;;3.40;;
27039;SDS011;14589;51.578;7.306;2023-11-21T14:22:51;7.93;;;2.90;;
27039;SDS011;14589;51.578;7.306;2023-11-21T14:25:22;7.57;;;3.70;;
27039;SDS011;14589;51.578;7.306;2023-11-21T14:27:52;6.50;;;3.33;;
27039;SDS011;14589;51.578;7.306;2023-11-21T14:30:23;4.50;;;1.65;;
27039;SDS011;14589;51.578;7.306;2023-11-21T14:32:53;6.00;;;2.58;;
27039;SDS011;14589;51.578;7.306;2023-11-21T14:35:24;5.40;;;3.83;;
27039;SDS011;14589;51.578;7.306;2023-11-21T14:37:54;4.20;;;1.80;;
27039;SDS011;14589;51.578;7.306;2023-11-21T14:40:25;4.38;;;1.52;;
27039;SDS011;14589;51.578;7.306;2023-11-21T14:43:01;5.38;;;2.50;;
27039;SDS011;14589;51.578;7.306;2023-11-21T14:45:35;4.60;;;1.85;;
27039;SDS011;14589;51.578;7.306;2023-11-21T14:48:05;5.88;;;2.22;;
27039;SDS011;14589;51.578;7.306;2023-11-21T14:50:36;5.70;;;2.40;;
27039;SDS011;14589;51.578;7.306;2023-11-21T14:53:12;5.85;;;2.45;;
27039;SDS011;14589;51.578;7.306;2023-11-21T14:55:43;3.95;;;1.30;;
27039;SDS011;14589;51.578;7.306;2023-11-21T14:58:19;5.20;;;1.70;;
27039;SDS011;14589;51.578;7.306;2023-11-21T15:03:32;5.78;;;1.85;;
27039;SDS011;14589;51.578;7.306;2023-11-21T15:06:04;8.38;;;2.80;;
27039;SDS011;14589;51.578;7.306;2023-11-21T15:08:55;5.72;;;1.83;;
27039;SDS011;14589;51.578;7.306;2023-11-21T15:11:47;6.88;;;3.10;;
27039;SDS011;14589;51.578;7.306;2023-11-21T15:14:17;5.80;;;2.60;;
27039;SDS011;14589;51.578;7.306;2023-11-21T15:16:53;5.20;;;2.28;;
27039;SDS011;14589;51.578;7.306;2023-11-21T15:19:31;6.88;;;2.55;;
27039;SDS011;14589;51.578;7.306;2023-11-21T15:22:02;6.97;;;3.50;;
27039;SDS011;14589;51.578;7.306;2023-11-21T15:24:33;11.18;;;4.07;;